sensor_id;sensor_type;location;lat;lon;timestamp;P1;durP1;ratioP1;P2;durP2;ratioP2
54332;SDS011;40230;41.860;21.940;2022-10-16T00:01:29;10.75;;;9.45;;
54332;SDS011;40230;41.860;21.940;2022-10-16T00:03:56;11.70;;;10.50;;
54332;SDS011;40230;41.860;21.940;2022-10-16T00:06:22;13.32;;;11.40;;
54332;SDS011;40230;41.860;21.940;2022-10-16T00:08:49;17.02;;;11.38;;
54332;SDS011;40230;41.860;21.940;2022-10-16T00:11:19;12.60;;;10.95;;
54332;SDS011;40230;41.860;21.940;2022-10-16T00:13:47;15.25;;;11.13;;
54332;SDS011;40230;41.860;21.940;2022-10-16T00:16:14;12.15;;;9.93;;
54332;SDS011;40230;41.860;21.940;2022-10-16T00:18:40;11.13;;;9.05;;
54332;SDS011;40230;41.860;21.940;2022-10-16T00:21:11;13.45;;;9.05;;
54332;SDS011;40230;41.860;21.940;2022-10-16T00:23:38;11.35;;;9.85;;
54332;SDS011;40230;41.860;21.940;2022-10-16T00:26:06;14.77;;;9.82;;
54332;SDS011;40230;41.860;21.940;2022-10-16T00:28:32;11.23;;;9.25;;
54332;SDS011;40230;41.860;21.940;2022-10-16T00:30:58;12.02;;;9.68;;
54332;SDS011;40230;41.860;21.940;2022-10-16T00:33:25;10.93;;;8.55;;
54332;SDS011;40230;41.860;21.940;2022-10-16T00:35:51;11.75;;;9.57;;
54332;SDS011;40230;41.860;21.940;2022-10-16T00:38:17;13.20;;;9.30;;
54332;SDS011;40230;41.860;21.940;2022-10-16T00:40:43;12.00;;;9.68;;
54332;SDS011;40230;41.860;21.940;2022-10-16T00:43:12;11.50;;;10.13;;
54332;SDS011;40230;41.860;21.940;2022-10-16T00:45:38;10.68;;;9.40;;
54332;SDS011;40230;41.860;21.940;2022-10-16T00:48:06;10.20;;;8.85;;
54332;SDS011;40230;41.860;21.940;2022-10-16T00:50:36;11.30;;;10.10;;
54332;SDS011;40230;41.860;21.940;2022-10-16T00:53:03;10.45;;;9.45;;
54332;SDS011;40230;41.860;21.940;2022-10-16T00:55:29;11.68;;;9.07;;
54332;SDS011;40230;41.860;21.940;2022-10-16T00:57:56;10.98;;;9.85;;
54332;SDS011;40230;41.860;21.940;2022-10-16T01:00:24;12.50;;;10.40;;
54332;SDS011;40230;41.860;21.940;2022-10-16T01:02:57;14.48;;;12.00;;
54332;SDS011;40230;41.860;21.940;2022-10-16T01:05:30;13.77;;;11.02;;
54332;SDS011;40230;41.860;21.940;2022-10-16T01:07:58;14.90;;;12.18;;
54332;SDS011;40230;41.860;21.940;2022-10-16T01:10:43;16.98;;;12.45;;
54332;SDS011;40230;41.860;21.940;2022-10-16T01:13:14;19.73;;;14.67;;
54332;SDS011;40230;41.860;21.940;2022-10-16T01:21:28;21.75;;;16.27;;
54332;SDS011;40230;41.860;21.940;2022-10-16T01:29:10;16.58;;;12.93;;
54332;SDS011;40230;41.860;21.940;2022-10-16T01:31:40;15.65;;;12.30;;
54332;SDS011;40230;41.860;21.940;2022-10-16T01:34:14;17.73;;;12.40;;
54332;SDS011;40230;41.860;21.940;2022-10-16T01:41:55;13.82;;;11.07;;
54332;SDS011;40230;41.860;21.940;2022-10-16T01:44:24;12.35;;;11.05;;
54332;SDS011;40230;41.860;21.940;2022-10-16T01:46:52;14.55;;;10.93;;
54332;SDS011;40230;41.860;21.940;2022-10-16T01:49:18;13.55;;;10.50;;
54332;SDS011;40230;41.860;21.940;2022-10-16T01:51:46;11.80;;;10.07;;
54332;SDS011;40230;41.860;21.940;2022-10-16T01:54:13;12.43;;;9.88;;
54332;SDS011;40230;41.860;21.940;2022-10-16T01:56:40;12.93;;;10.15;;
54332;SDS011;40230;41.860;21.940;2022-10-16T01:59:09;12.38;;;10.32;;
54332;SDS011;40230;41.860;21.940;2022-10-16T02:01:37;16.33;;;12.95;;
54332;SDS011;40230;41.860;21.940;2022-10-16T02:04:09;19.75;;;15.57;;
54332;SDS011;40230;41.860;21.940;2022-10-16T02:06:37;17.02;;;13.15;;
54332;SDS011;40230;41.860;21.940;2022-10-16T02:09:03;16.05;;;13.07;;
54332;SDS011;40230;41.860;21.940;2022-10-16T02:11:29;18.45;;;13.77;;
54332;SDS011;40230;41.860;21.940;2022-10-16T02:14:00;20.63;;;14.25;;
54332;SDS011;40230;41.860;21.940;2022-10-16T02:16:41;17.17;;;14.02;;
54332;SDS011;40230;41.860;21.940;2022-10-16T02:19:07;24.02;;;16.42;;
54332;SDS011;40230;41.860;21.940;2022-10-16T02:29:33;13.95;;;10.40;;
54332;SDS011;40230;41.860;21.940;2022-10-16T02:32:03;11.27;;;10.02;;
54332;SDS011;40230;41.860;21.940;2022-10-16T02:34:30;12.48;;;10.75;;
54332;SDS011;40230;41.860;21.940;2022-10-16T02:36:58;11.27;;;9.23;;
54332;SDS011;40230;41.860;21.940;2022-10-16T02:39:26;11.88;;;9.18;;
54332;SDS011;40230;41.860;21.940;2022-10-16T02:41:53;11.20;;;9.45;;
54332;SDS011;40230;41.860;21.940;2022-10-16T02:44:19;11.65;;;10.27;;
54332;SDS011;40230;41.860;21.940;2022-10-16T02:46:45;11.23;;;9.05;;
54332;SDS011;40230;41.860;21.940;2022-10-16T02:49:11;11.20;;;8.95;;
54332;SDS011;40230;41.860;21.940;2022-10-16T02:51:37;11.75;;;8.27;;
54332;SDS011;40230;41.860;21.940;2022-10-16T02:54:03;13.00;;;9.98;;
54332;SDS011;40230;41.860;21.940;2022-10-16T02:56:29;10.20;;;9.20;;
54332;SDS011;40230;41.860;21.940;2022-10-16T02:58:56;11.57;;;9.65;;
54332;SDS011;40230;41.860;21.940;2022-10-16T03:01:22;11.48;;;9.55;;
54332;SDS011;40230;41.860;21.940;2022-10-16T03:03:49;12.88;;;9.77;;
54332;SDS011;40230;41.860;21.940;2022-10-16T03:06:15;11.05;;;9.95;;
54332;SDS011;40230;41.860;21.940;2022-10-16T03:08:41;12.00;;;10.65;;
54332;SDS011;40230;41.860;21.940;2022-10-16T03:11:07;10.57;;;8.60;;
54332;SDS011;40230;41.860;21.940;2022-10-16T03:13:33;10.45;;;8.98;;
54332;SDS011;40230;41.860;21.940;2022-10-16T03:15:59;8.70;;;7.80;;
54332;SDS011;40230;41.860;21.940;2022-10-16T03:18:25;10.52;;;8.23;;
54332;SDS011;40230;41.860;21.940;2022-10-16T03:20:51;9.32;;;7.82;;
54332;SDS011;40230;41.860;21.940;2022-10-16T03:23:17;16.00;;;14.30;;
54332;SDS011;40230;41.860;21.940;2022-10-16T03:25:43;56.40;;;38.38;;
54332;SDS011;40230;41.860;21.940;2022-10-16T03:28:09;11.52;;;9.70;;
54332;SDS011;40230;41.860;21.940;2022-10-16T03:30:35;11.73;;;10.13;;
54332;SDS011;40230;41.860;21.940;2022-10-16T03:33:01;10.48;;;8.57;;
54332;SDS011;40230;41.860;21.940;2022-10-16T03:35:28;17.50;;;15.70;;
54332;SDS011;40230;41.860;21.940;2022-10-16T03:37:54;15.82;;;12.60;;
54332;SDS011;40230;41.860;21.940;2022-10-16T03:40:21;14.23;;;9.93;;
54332;SDS011;40230;41.860;21.940;2022-10-16T03:42:47;13.13;;;9.32;;
54332;SDS011;40230;41.860;21.940;2022-10-16T03:45:13;12.88;;;8.80;;
54332;SDS011;40230;41.860;21.940;2022-10-16T03:47:39;11.40;;;8.98;;
54332;SDS011;40230;41.860;21.940;2022-10-16T03:50:06;11.38;;;9.68;;
54332;SDS011;40230;41.860;21.940;2022-10-16T03:52:32;9.93;;;8.80;;
54332;SDS011;40230;41.860;21.940;2022-10-16T03:54:58;11.73;;;10.05;;
54332;SDS011;40230;41.860;21.940;2022-10-16T03:57:25;14.70;;;13.20;;
54332;SDS011;40230;41.860;21.940;2022-10-16T03:59:51;14.68;;;13.27;;
54332;SDS011;40230;41.860;21.940;2022-10-16T04:02:17;14.30;;;12.43;;
54332;SDS011;40230;41.860;21.940;2022-10-16T04:04:43;20.85;;;15.48;;
54332;SDS011;40230;41.860;21.940;2022-10-16T04:07:09;22.73;;;15.25;;
54332;SDS011;40230;41.860;21.940;2022-10-16T04:09:35;17.40;;;13.23;;
54332;SDS011;40230;41.860;21.940;2022-10-16T04:12:01;15.45;;;11.57;;
54332;SDS011;40230;41.860;21.940;2022-10-16T04:14:28;14.82;;;11.27;;
54332;SDS011;40230;41.860;21.940;2022-10-16T04:16:54;11.50;;;10.27;;
54332;SDS011;40230;41.860;21.940;2022-10-16T04:19:20;14.20;;;12.10;;
54332;SDS011;40230;41.860;21.940;2022-10-16T04:21:46;19.05;;;13.13;;
54332;SDS011;40230;41.860;21.940;2022-10-16T04:24:12;17.52;;;13.50;;
54332;SDS011;40230;41.860;21.940;2022-10-16T04:26:38;14.85;;;12.95;;
54332;SDS011;40230;41.860;21.940;2022-10-16T04:29:04;20.95;;;15.85;;
54332;SDS011;40230;41.860;21.940;2022-10-16T04:31:31;22.77;;;16.38;;
54332;SDS011;40230;41.860;21.940;2022-10-16T04:33:58;19.63;;;17.13;;
54332;SDS011;40230;41.860;21.940;2022-10-16T04:36:24;20.10;;;16.70;;
54332;SDS011;40230;41.860;21.940;2022-10-16T04:38:50;32.45;;;22.27;;
54332;SDS011;40230;41.860;21.940;2022-10-16T04:41:16;30.20;;;23.70;;
54332;SDS011;40230;41.860;21.940;2022-10-16T04:43:42;30.80;;;22.02;;
54332;SDS011;40230;41.860;21.940;2022-10-16T04:46:08;33.53;;;24.50;;
54332;SDS011;40230;41.860;21.940;2022-10-16T04:48:35;74.97;;;60.38;;
54332;SDS011;40230;41.860;21.940;2022-10-16T04:51:01;21.48;;;16.60;;
54332;SDS011;40230;41.860;21.940;2022-10-16T04:53:27;19.83;;;16.10;;
54332;SDS011;40230;41.860;21.940;2022-10-16T04:55:53;16.73;;;11.00;;
54332;SDS011;40230;41.860;21.940;2022-10-16T04:58:19;12.40;;;11.10;;
54332;SDS011;40230;41.860;21.940;2022-10-16T05:00:45;12.27;;;10.48;;
54332;SDS011;40230;41.860;21.940;2022-10-16T05:03:12;13.70;;;11.65;;
54332;SDS011;40230;41.860;21.940;2022-10-16T05:05:41;15.43;;;12.13;;
54332;SDS011;40230;41.860;21.940;2022-10-16T05:08:08;23.30;;;19.80;;
54332;SDS011;40230;41.860;21.940;2022-10-16T05:10:34;37.38;;;29.25;;
54332;SDS011;40230;41.860;21.940;2022-10-16T05:13:00;31.55;;;26.02;;
54332;SDS011;40230;41.860;21.940;2022-10-16T05:15:26;20.98;;;17.63;;
54332;SDS011;40230;41.860;21.940;2022-10-16T05:17:54;18.73;;;16.73;;
54332;SDS011;40230;41.860;21.940;2022-10-16T05:20:20;17.05;;;14.70;;
54332;SDS011;40230;41.860;21.940;2022-10-16T05:22:46;17.70;;;14.75;;
54332;SDS011;40230;41.860;21.940;2022-10-16T05:25:12;112.03;;;80.05;;
54332;SDS011;40230;41.860;21.940;2022-10-16T05:27:38;31.05;;;24.90;;
54332;SDS011;40230;41.860;21.940;2022-10-16T05:30:04;34.97;;;27.83;;
54332;SDS011;40230;41.860;21.940;2022-10-16T05:32:31;39.55;;;33.20;;
54332;SDS011;40230;41.860;21.940;2022-10-16T05:34:57;35.28;;;30.15;;
54332;SDS011;40230;41.860;21.940;2022-10-16T05:37:25;37.03;;;29.98;;
54332;SDS011;40230;41.860;21.940;2022-10-16T05:39:51;26.05;;;22.90;;
54332;SDS011;40230;41.860;21.940;2022-10-16T05:42:17;94.68;;;71.32;;
54332;SDS011;40230;41.860;21.940;2022-10-16T05:44:43;105.32;;;65.90;;
54332;SDS011;40230;41.860;21.940;2022-10-16T05:47:09;27.08;;;21.90;;
54332;SDS011;40230;41.860;21.940;2022-10-16T05:49:36;81.40;;;65.47;;
54332;SDS011;40230;41.860;21.940;2022-10-16T05:52:02;37.10;;;30.50;;
54332;SDS011;40230;41.860;21.940;2022-10-16T05:54:28;31.33;;;27.50;;
54332;SDS011;40230;41.860;21.940;2022-10-16T05:56:54;26.52;;;20.65;;
54332;SDS011;40230;41.860;21.940;2022-10-16T05:59:20;22.70;;;20.27;;
54332;SDS011;40230;41.860;21.940;2022-10-16T06:01:46;22.65;;;19.95;;
54332;SDS011;40230;41.860;21.940;2022-10-16T06:04:12;36.63;;;29.77;;
54332;SDS011;40230;41.860;21.940;2022-10-16T06:06:38;47.78;;;38.83;;
54332;SDS011;40230;41.860;21.940;2022-10-16T06:09:04;45.95;;;38.83;;
54332;SDS011;40230;41.860;21.940;2022-10-16T06:11:31;40.15;;;35.83;;
54332;SDS011;40230;41.860;21.940;2022-10-16T06:13:59;41.42;;;31.92;;
54332;SDS011;40230;41.860;21.940;2022-10-16T06:16:27;36.30;;;31.08;;
54332;SDS011;40230;41.860;21.940;2022-10-16T06:18:54;48.40;;;40.55;;
54332;SDS011;40230;41.860;21.940;2022-10-16T06:21:22;61.38;;;47.88;;
54332;SDS011;40230;41.860;21.940;2022-10-16T06:23:49;52.88;;;35.17;;
54332;SDS011;40230;41.860;21.940;2022-10-16T06:26:17;56.30;;;40.30;;
54332;SDS011;40230;41.860;21.940;2022-10-16T06:28:43;46.10;;;36.75;;
54332;SDS011;40230;41.860;21.940;2022-10-16T06:31:09;41.67;;;32.83;;
54332;SDS011;40230;41.860;21.940;2022-10-16T06:33:36;31.92;;;25.25;;
54332;SDS011;40230;41.860;21.940;2022-10-16T06:36:06;35.10;;;27.85;;
54332;SDS011;40230;41.860;21.940;2022-10-16T06:38:33;35.20;;;28.80;;
54332;SDS011;40230;41.860;21.940;2022-10-16T06:40:59;32.33;;;25.98;;
54332;SDS011;40230;41.860;21.940;2022-10-16T06:43:25;33.20;;;28.10;;
54332;SDS011;40230;41.860;21.940;2022-10-16T06:45:52;30.85;;;24.65;;
54332;SDS011;40230;41.860;21.940;2022-10-16T06:48:19;22.35;;;19.52;;
54332;SDS011;40230;41.860;21.940;2022-10-16T06:50:54;21.08;;;17.58;;
54332;SDS011;40230;41.860;21.940;2022-10-16T06:53:21;20.00;;;17.90;;
54332;SDS011;40230;41.860;21.940;2022-10-16T06:55:47;20.10;;;18.00;;
54332;SDS011;40230;41.860;21.940;2022-10-16T06:58:13;22.60;;;18.50;;
54332;SDS011;40230;41.860;21.940;2022-10-16T07:00:39;22.40;;;18.00;;
54332;SDS011;40230;41.860;21.940;2022-10-16T07:03:05;22.67;;;18.70;;
54332;SDS011;40230;41.860;21.940;2022-10-16T07:05:31;23.13;;;18.90;;
54332;SDS011;40230;41.860;21.940;2022-10-16T07:07:57;24.27;;;19.15;;
54332;SDS011;40230;41.860;21.940;2022-10-16T07:10:23;21.42;;;18.80;;
54332;SDS011;40230;41.860;21.940;2022-10-16T07:12:49;22.30;;;17.88;;
54332;SDS011;40230;41.860;21.940;2022-10-16T07:15:15;21.80;;;16.23;;
54332;SDS011;40230;41.860;21.940;2022-10-16T07:17:41;21.15;;;16.60;;
54332;SDS011;40230;41.860;21.940;2022-10-16T07:20:08;22.58;;;16.23;;
54332;SDS011;40230;41.860;21.940;2022-10-16T07:22:34;16.27;;;13.35;;
54332;SDS011;40230;41.860;21.940;2022-10-16T07:25:00;17.02;;;14.25;;
54332;SDS011;40230;41.860;21.940;2022-10-16T07:27:26;18.98;;;15.05;;
54332;SDS011;40230;41.860;21.940;2022-10-16T07:29:52;19.45;;;15.57;;
54332;SDS011;40230;41.860;21.940;2022-10-16T07:32:18;25.13;;;18.40;;
54332;SDS011;40230;41.860;21.940;2022-10-16T07:34:44;18.88;;;15.93;;
54332;SDS011;40230;41.860;21.940;2022-10-16T07:37:10;21.35;;;16.75;;
54332;SDS011;40230;41.860;21.940;2022-10-16T07:39:37;18.15;;;15.98;;
54332;SDS011;40230;41.860;21.940;2022-10-16T07:42:03;18.27;;;14.93;;
54332;SDS011;40230;41.860;21.940;2022-10-16T07:44:29;21.38;;;15.95;;
54332;SDS011;40230;41.860;21.940;2022-10-16T07:46:55;17.85;;;15.95;;
54332;SDS011;40230;41.860;21.940;2022-10-16T07:49:21;16.23;;;14.48;;
54332;SDS011;40230;41.860;21.940;2022-10-16T07:51:47;19.25;;;16.02;;
54332;SDS011;40230;41.860;21.940;2022-10-16T07:54:13;16.85;;;14.63;;
54332;SDS011;40230;41.860;21.940;2022-10-16T07:56:40;15.57;;;13.77;;
54332;SDS011;40230;41.860;21.940;2022-10-16T07:59:06;16.08;;;14.05;;
54332;SDS011;40230;41.860;21.940;2022-10-16T08:01:32;18.60;;;14.38;;
54332;SDS011;40230;41.860;21.940;2022-10-16T08:03:58;17.65;;;13.45;;
54332;SDS011;40230;41.860;21.940;2022-10-16T08:06:24;17.00;;;14.32;;
54332;SDS011;40230;41.860;21.940;2022-10-16T08:08:50;16.75;;;13.40;;
54332;SDS011;40230;41.860;21.940;2022-10-16T08:11:16;16.75;;;13.80;;
54332;SDS011;40230;41.860;21.940;2022-10-16T08:13:43;16.25;;;14.00;;
54332;SDS011;40230;41.860;21.940;2022-10-16T08:16:09;15.35;;;13.10;;
54332;SDS011;40230;41.860;21.940;2022-10-16T08:18:36;15.23;;;13.13;;
54332;SDS011;40230;41.860;21.940;2022-10-16T08:21:03;13.80;;;12.32;;
54332;SDS011;40230;41.860;21.940;2022-10-16T08:23:29;13.77;;;12.05;;
54332;SDS011;40230;41.860;21.940;2022-10-16T08:25:56;12.45;;;10.07;;
54332;SDS011;40230;41.860;21.940;2022-10-16T08:28:27;13.45;;;11.02;;
54332;SDS011;40230;41.860;21.940;2022-10-16T08:30:53;11.93;;;10.70;;
54332;SDS011;40230;41.860;21.940;2022-10-16T08:33:21;13.80;;;11.40;;
54332;SDS011;40230;41.860;21.940;2022-10-16T08:35:53;12.75;;;11.35;;
54332;SDS011;40230;41.860;21.940;2022-10-16T08:38:20;15.02;;;13.48;;
54332;SDS011;40230;41.860;21.940;2022-10-16T08:40:46;12.73;;;11.02;;
54332;SDS011;40230;41.860;21.940;2022-10-16T08:51:18;13.15;;;9.85;;
54332;SDS011;40230;41.860;21.940;2022-10-16T08:54:04;9.27;;;8.27;;
54332;SDS011;40230;41.860;21.940;2022-10-16T08:56:31;8.80;;;7.55;;
54332;SDS011;40230;41.860;21.940;2022-10-16T08:58:58;10.27;;;6.95;;
54332;SDS011;40230;41.860;21.940;2022-10-16T09:01:25;7.70;;;6.45;;
54332;SDS011;40230;41.860;21.940;2022-10-16T09:06:35;8.70;;;7.57;;
54332;SDS011;40230;41.860;21.940;2022-10-16T09:22:21;8.98;;;6.53;;
54332;SDS011;40230;41.860;21.940;2022-10-16T09:24:48;7.72;;;6.53;;
54332;SDS011;40230;41.860;21.940;2022-10-16T09:27:14;7.68;;;6.53;;
54332;SDS011;40230;41.860;21.940;2022-10-16T09:29:40;7.85;;;6.63;;
54332;SDS011;40230;41.860;21.940;2022-10-16T09:32:14;6.43;;;5.57;;
54332;SDS011;40230;41.860;21.940;2022-10-16T09:34:42;7.60;;;6.72;;
54332;SDS011;40230;41.860;21.940;2022-10-16T09:37:09;8.85;;;6.38;;
54332;SDS011;40230;41.860;21.940;2022-10-16T09:40:12;7.47;;;5.30;;
54332;SDS011;40230;41.860;21.940;2022-10-16T09:42:31;7.40;;;5.95;;
54332;SDS011;40230;41.860;21.940;2022-10-16T09:44:58;8.32;;;7.40;;
54332;SDS011;40230;41.860;21.940;2022-10-16T09:47:24;7.03;;;5.40;;
54332;SDS011;40230;41.860;21.940;2022-10-16T09:49:55;7.68;;;6.88;;
54332;SDS011;40230;41.860;21.940;2022-10-16T09:52:23;8.38;;;6.13;;
54332;SDS011;40230;41.860;21.940;2022-10-16T09:54:56;7.15;;;5.55;;
54332;SDS011;40230;41.860;21.940;2022-10-16T09:57:22;8.38;;;6.00;;
54332;SDS011;40230;41.860;21.940;2022-10-16T09:59:55;6.88;;;6.18;;
54332;SDS011;40230;41.860;21.940;2022-10-16T10:02:29;12.00;;;9.23;;
54332;SDS011;40230;41.860;21.940;2022-10-16T10:04:56;9.05;;;7.40;;
54332;SDS011;40230;41.860;21.940;2022-10-16T10:12:33;12.60;;;8.10;;
54332;SDS011;40230;41.860;21.940;2022-10-16T10:15:07;8.20;;;6.20;;
54332;SDS011;40230;41.860;21.940;2022-10-16T10:17:45;8.93;;;6.65;;
54332;SDS011;40230;41.860;21.940;2022-10-16T10:20:18;9.63;;;6.65;;
54332;SDS011;40230;41.860;21.940;2022-10-16T10:22:47;7.57;;;6.78;;
54332;SDS011;40230;41.860;21.940;2022-10-16T10:30:27;8.23;;;7.32;;
54332;SDS011;40230;41.860;21.940;2022-10-16T10:38:09;9.02;;;6.50;;
54332;SDS011;40230;41.860;21.940;2022-10-16T10:45:46;6.65;;;5.95;;
54332;SDS011;40230;41.860;21.940;2022-10-16T10:50:49;8.32;;;7.13;;
54332;SDS011;40230;41.860;21.940;2022-10-16T10:53:21;7.53;;;6.30;;
54332;SDS011;40230;41.860;21.940;2022-10-16T11:06:33;5.90;;;4.65;;
54332;SDS011;40230;41.860;21.940;2022-10-16T11:11:35;5.20;;;4.18;;
54332;SDS011;40230;41.860;21.940;2022-10-16T11:14:06;5.10;;;4.57;;
54332;SDS011;40230;41.860;21.940;2022-10-16T11:16:43;6.85;;;4.55;;
54332;SDS011;40230;41.860;21.940;2022-10-16T11:24:25;5.10;;;4.53;;
54332;SDS011;40230;41.860;21.940;2022-10-16T11:26:57;7.40;;;4.95;;
54332;SDS011;40230;41.860;21.940;2022-10-16T11:29:29;5.13;;;4.53;;
54332;SDS011;40230;41.860;21.940;2022-10-16T11:32:00;5.90;;;5.07;;
54332;SDS011;40230;41.860;21.940;2022-10-16T11:34:38;5.47;;;4.85;;
54332;SDS011;40230;41.860;21.940;2022-10-16T11:39:52;4.63;;;4.15;;
54332;SDS011;40230;41.860;21.940;2022-10-16T11:42:44;5.47;;;4.97;;
54332;SDS011;40230;41.860;21.940;2022-10-16T11:45:13;8.23;;;6.43;;
54332;SDS011;40230;41.860;21.940;2022-10-16T11:47:44;6.05;;;4.90;;
54332;SDS011;40230;41.860;21.940;2022-10-16T11:52:53;5.85;;;5.22;;
54332;SDS011;40230;41.860;21.940;2022-10-16T11:55:22;6.00;;;5.00;;
54332;SDS011;40230;41.860;21.940;2022-10-16T11:57:51;18.80;;;14.90;;
54332;SDS011;40230;41.860;21.940;2022-10-16T12:10:41;7.13;;;4.95;;
54332;SDS011;40230;41.860;21.940;2022-10-16T12:15:52;5.70;;;5.05;;
54332;SDS011;40230;41.860;21.940;2022-10-16T12:18:29;7.32;;;4.10;;
54332;SDS011;40230;41.860;21.940;2022-10-16T12:20:55;5.82;;;4.68;;
54332;SDS011;40230;41.860;21.940;2022-10-16T12:23:30;5.35;;;4.82;;
54332;SDS011;40230;41.860;21.940;2022-10-16T12:26:00;8.70;;;4.50;;
54332;SDS011;40230;41.860;21.940;2022-10-16T12:28:28;6.68;;;4.53;;
54332;SDS011;40230;41.860;21.940;2022-10-16T12:30:56;9.43;;;6.70;;
54332;SDS011;40230;41.860;21.940;2022-10-16T12:33:24;5.70;;;4.30;;
54332;SDS011;40230;41.860;21.940;2022-10-16T12:35:51;5.72;;;4.32;;
54332;SDS011;40230;41.860;21.940;2022-10-16T12:38:21;5.63;;;4.13;;
54332;SDS011;40230;41.860;21.940;2022-10-16T12:41:09;5.23;;;4.67;;
54332;SDS011;40230;41.860;21.940;2022-10-16T12:43:38;7.25;;;4.53;;
54332;SDS011;40230;41.860;21.940;2022-10-16T12:48:37;6.00;;;4.40;;
54332;SDS011;40230;41.860;21.940;2022-10-16T12:51:23;4.68;;;4.25;;
54332;SDS011;40230;41.860;21.940;2022-10-16T13:01:34;4.72;;;3.55;;
54332;SDS011;40230;41.860;21.940;2022-10-16T13:06:45;8.23;;;5.18;;
54332;SDS011;40230;41.860;21.940;2022-10-16T13:19:20;6.15;;;4.85;;
54332;SDS011;40230;41.860;21.940;2022-10-16T13:21:57;5.53;;;4.70;;
54332;SDS011;40230;41.860;21.940;2022-10-16T13:27:09;5.75;;;4.22;;
54332;SDS011;40230;41.860;21.940;2022-10-16T13:29:38;5.90;;;4.35;;
54332;SDS011;40230;41.860;21.940;2022-10-16T13:32:10;7.95;;;4.18;;
54332;SDS011;40230;41.860;21.940;2022-10-16T13:34:47;4.75;;;3.55;;
54332;SDS011;40230;41.860;21.940;2022-10-16T13:37:17;4.85;;;3.60;;
54332;SDS011;40230;41.860;21.940;2022-10-16T13:39:44;4.07;;;3.40;;
54332;SDS011;40230;41.860;21.940;2022-10-16T13:42:22;5.97;;;4.03;;
54332;SDS011;40230;41.860;21.940;2022-10-16T13:44:49;6.03;;;4.65;;
54332;SDS011;40230;41.860;21.940;2022-10-16T13:47:20;6.22;;;4.10;;
54332;SDS011;40230;41.860;21.940;2022-10-16T13:49:46;8.43;;;6.03;;
54332;SDS011;40230;41.860;21.940;2022-10-16T13:57:24;6.55;;;4.28;;
54332;SDS011;40230;41.860;21.940;2022-10-16T13:59:50;4.60;;;3.15;;
54332;SDS011;40230;41.860;21.940;2022-10-16T14:02:21;5.50;;;4.00;;
54332;SDS011;40230;41.860;21.940;2022-10-16T14:04:48;4.30;;;3.35;;
54332;SDS011;40230;41.860;21.940;2022-10-16T14:07:17;12.38;;;8.18;;
54332;SDS011;40230;41.860;21.940;2022-10-16T14:09:47;7.55;;;4.93;;
54332;SDS011;40230;41.860;21.940;2022-10-16T14:12:13;3.90;;;3.50;;
54332;SDS011;40230;41.860;21.940;2022-10-16T14:14:46;5.72;;;3.90;;
54332;SDS011;40230;41.860;21.940;2022-10-16T14:17:13;6.28;;;4.65;;
54332;SDS011;40230;41.860;21.940;2022-10-16T14:19:40;6.07;;;3.70;;
54332;SDS011;40230;41.860;21.940;2022-10-16T14:22:18;5.10;;;4.53;;
54332;SDS011;40230;41.860;21.940;2022-10-16T14:24:45;5.43;;;4.65;;
54332;SDS011;40230;41.860;21.940;2022-10-16T14:32:22;9.10;;;5.50;;
54332;SDS011;40230;41.860;21.940;2022-10-16T14:34:52;5.32;;;4.32;;
54332;SDS011;40230;41.860;21.940;2022-10-16T14:37:28;4.90;;;4.43;;
54332;SDS011;40230;41.860;21.940;2022-10-16T14:39:55;4.80;;;4.13;;
54332;SDS011;40230;41.860;21.940;2022-10-16T14:42:22;5.45;;;4.90;;
54332;SDS011;40230;41.860;21.940;2022-10-16T14:44:50;9.13;;;6.90;;
54332;SDS011;40230;41.860;21.940;2022-10-16T14:47:20;7.38;;;6.20;;
54332;SDS011;40230;41.860;21.940;2022-10-16T14:49:50;6.18;;;5.20;;
54332;SDS011;40230;41.860;21.940;2022-10-16T14:52:16;6.63;;;5.47;;
54332;SDS011;40230;41.860;21.940;2022-10-16T14:54:42;7.55;;;6.28;;
54332;SDS011;40230;41.860;21.940;2022-10-16T14:59:53;6.68;;;5.95;;
54332;SDS011;40230;41.860;21.940;2022-10-16T15:02:25;9.00;;;6.88;;
54332;SDS011;40230;41.860;21.940;2022-10-16T15:04:52;6.65;;;5.57;;
54332;SDS011;40230;41.860;21.940;2022-10-16T15:07:19;10.93;;;5.93;;
54332;SDS011;40230;41.860;21.940;2022-10-16T15:09:45;8.95;;;5.85;;
54332;SDS011;40230;41.860;21.940;2022-10-16T15:12:11;11.40;;;7.68;;
54332;SDS011;40230;41.860;21.940;2022-10-16T15:14:37;12.68;;;8.40;;
54332;SDS011;40230;41.860;21.940;2022-10-16T15:17:03;10.30;;;7.50;;
54332;SDS011;40230;41.860;21.940;2022-10-16T15:19:29;12.15;;;7.95;;
54332;SDS011;40230;41.860;21.940;2022-10-16T15:21:56;11.80;;;10.48;;
54332;SDS011;40230;41.860;21.940;2022-10-16T15:24:22;11.00;;;8.95;;
54332;SDS011;40230;41.860;21.940;2022-10-16T15:26:48;10.18;;;8.63;;
54332;SDS011;40230;41.860;21.940;2022-10-16T15:29:14;9.07;;;7.95;;
54332;SDS011;40230;41.860;21.940;2022-10-16T15:31:40;11.45;;;9.32;;
54332;SDS011;40230;41.860;21.940;2022-10-16T15:34:12;12.90;;;10.45;;
54332;SDS011;40230;41.860;21.940;2022-10-16T15:36:38;12.57;;;9.70;;
54332;SDS011;40230;41.860;21.940;2022-10-16T15:39:05;9.95;;;8.90;;
54332;SDS011;40230;41.860;21.940;2022-10-16T15:41:32;10.30;;;8.50;;
54332;SDS011;40230;41.860;21.940;2022-10-16T15:43:58;11.52;;;10.38;;
54332;SDS011;40230;41.860;21.940;2022-10-16T15:46:24;11.63;;;9.57;;
54332;SDS011;40230;41.860;21.940;2022-10-16T15:48:50;8.40;;;7.50;;
54332;SDS011;40230;41.860;21.940;2022-10-16T15:51:17;10.35;;;9.25;;
54332;SDS011;40230;41.860;21.940;2022-10-16T15:53:44;10.50;;;8.55;;
54332;SDS011;40230;41.860;21.940;2022-10-16T15:56:11;8.18;;;7.28;;
54332;SDS011;40230;41.860;21.940;2022-10-16T15:58:37;11.27;;;8.00;;
54332;SDS011;40230;41.860;21.940;2022-10-16T16:01:04;13.15;;;11.75;;
54332;SDS011;40230;41.860;21.940;2022-10-16T16:03:30;13.77;;;11.40;;
54332;SDS011;40230;41.860;21.940;2022-10-16T16:05:57;16.05;;;12.57;;
54332;SDS011;40230;41.860;21.940;2022-10-16T16:08:23;18.85;;;15.20;;
54332;SDS011;40230;41.860;21.940;2022-10-16T16:11:08;16.83;;;14.38;;
54332;SDS011;40230;41.860;21.940;2022-10-16T16:13:34;16.67;;;14.02;;
54332;SDS011;40230;41.860;21.940;2022-10-16T16:16:05;23.63;;;20.17;;
54332;SDS011;40230;41.860;21.940;2022-10-16T16:18:31;54.35;;;42.60;;
54332;SDS011;40230;41.860;21.940;2022-10-16T16:20:58;69.22;;;50.15;;
54332;SDS011;40230;41.860;21.940;2022-10-16T16:23:24;59.63;;;44.60;;
54332;SDS011;40230;41.860;21.940;2022-10-16T16:31:00;54.55;;;47.35;;
54332;SDS011;40230;41.860;21.940;2022-10-16T16:33:26;41.63;;;35.53;;
54332;SDS011;40230;41.860;21.940;2022-10-16T16:38:37;19.10;;;16.58;;
54332;SDS011;40230;41.860;21.940;2022-10-16T16:43:49;13.20;;;10.88;;
54332;SDS011;40230;41.860;21.940;2022-10-16T16:46:19;13.25;;;11.90;;
54332;SDS011;40230;41.860;21.940;2022-10-16T16:48:46;11.10;;;9.23;;
54332;SDS011;40230;41.860;21.940;2022-10-16T16:51:13;10.88;;;9.30;;
54332;SDS011;40230;41.860;21.940;2022-10-16T16:53:45;15.13;;;12.85;;
54332;SDS011;40230;41.860;21.940;2022-10-16T16:56:11;20.30;;;16.27;;
54332;SDS011;40230;41.860;21.940;2022-10-16T16:58:37;29.70;;;24.75;;
54332;SDS011;40230;41.860;21.940;2022-10-16T17:01:03;30.33;;;24.98;;